Главная страница
METAR-TAF:

METAR-TAF

Аэропорты :

Рабат, Марокко

широта: 34-03N, долгота: 006-46W, высота над уровнем моря: 84 м

Текущие метеонаблюдения

Эта сводка был подготовлена 32 минут назад, в 23:30 UTC
Ветер 8 Узел от восточный
Температура 7°C
Влажность 87%
Давление 1032 hPa
Видимость: 6000 м

METAR: GMME 172330Z 10008KT 6000 NSC 07/05 Q1032 NOSIG

Время: 01:02 (00:02 UTC)

Прогноз

Эта сводка был подготовлена 1 час и 2 минут назад, в 23:00 UTC
Прогноз действительный с 18-го 00 UTC до 19-го 06 UTC
Ветер 10 Узел от восточный
Видимость: 6000 м
Вероятность 30% :
временами
С 18-го 01 UTC до 18-го 06 UTC
Ветер 4 Узел от юго-юго-восточный
Видимость: 4000 м
Отдельные облака на высоте 8000 фута
Рассеянная облачность на высоте 20000 фута
дымка
изменения
С 18-го 11 UTC до 18-го 13 UTC
Ветер 10 Узел от северо-западный

TAF: GMME 172300Z 1800/1906 08010KT 6000 NSC PROB30 TEMPO 1801/1806 16004KT 4000 BR SCT080 BKN200 BECMG 1811/1813 32010KT

Метеонаблюдения и прогнозы для более 4000 аэропортов (сводки METAR и TAF).

Имеющиеся станции представлены на карте желтыми и красными точками.

Чтобы увидеть название станции, наведите на нее мышь.

Затем щелкните, чтобы увидеть метеонаблюдения и метеопрогнозы.

Управление картой: чтобы увеличить масштаб, щелкните зеленые кнопки с черным крестиком; чтобы уменьшить масштаб, щелкните зеленую кнопку с тире; для просмотра соседних карт щелкайте зеленые стрелки.


METAR-TAF: